sensor_id;sensor_type;location;lat;lon;timestamp;P1;durP1;ratioP1;P2;durP2;ratioP2
13753;SDS011;6948;51.216;6.778;2022-08-19T00:00:33;7.80;;;6.53;;
13753;SDS011;6948;51.216;6.778;2022-08-19T00:02:59;9.03;;;7.50;;
13753;SDS011;6948;51.216;6.778;2022-08-19T00:05:25;9.47;;;6.50;;
13753;SDS011;6948;51.216;6.778;2022-08-19T00:07:51;10.73;;;6.70;;
13753;SDS011;6948;51.216;6.778;2022-08-19T00:10:17;8.87;;;6.60;;
13753;SDS011;6948;51.216;6.778;2022-08-19T00:12:44;9.23;;;7.13;;
13753;SDS011;6948;51.216;6.778;2022-08-19T00:15:11;9.30;;;7.13;;
13753;SDS011;6948;51.216;6.778;2022-08-19T00:17:39;10.68;;;7.47;;
13753;SDS011;6948;51.216;6.778;2022-08-19T00:20:05;9.43;;;7.63;;
13753;SDS011;6948;51.216;6.778;2022-08-19T00:22:32;9.70;;;7.50;;
13753;SDS011;6948;51.216;6.778;2022-08-19T00:24:58;8.67;;;7.60;;
13753;SDS011;6948;51.216;6.778;2022-08-19T00:27:24;10.47;;;8.00;;
13753;SDS011;6948;51.216;6.778;2022-08-19T00:29:50;8.73;;;7.93;;
13753;SDS011;6948;51.216;6.778;2022-08-19T00:32:16;12.23;;;8.30;;
13753;SDS011;6948;51.216;6.778;2022-08-19T00:34:42;9.53;;;8.33;;
13753;SDS011;6948;51.216;6.778;2022-08-19T00:37:09;11.47;;;8.70;;
13753;SDS011;6948;51.216;6.778;2022-08-19T00:39:35;9.83;;;8.90;;
13753;SDS011;6948;51.216;6.778;2022-08-19T00:42:01;11.17;;;9.40;;
13753;SDS011;6948;51.216;6.778;2022-08-19T00:44:28;11.73;;;8.30;;
13753;SDS011;6948;51.216;6.778;2022-08-19T00:46:55;9.63;;;8.30;;
13753;SDS011;6948;51.216;6.778;2022-08-19T00:49:27;12.47;;;8.97;;
13753;SDS011;6948;51.216;6.778;2022-08-19T00:51:57;10.50;;;9.40;;
13753;SDS011;6948;51.216;6.778;2022-08-19T00:54:25;10.73;;;9.63;;
13753;SDS011;6948;51.216;6.778;2022-08-19T00:56:51;10.60;;;8.80;;
13753;SDS011;6948;51.216;6.778;2022-08-19T00:59:17;11.00;;;10.00;;
13753;SDS011;6948;51.216;6.778;2022-08-19T01:01:44;11.63;;;10.07;;
13753;SDS011;6948;51.216;6.778;2022-08-19T01:04:11;13.27;;;10.93;;
13753;SDS011;6948;51.216;6.778;2022-08-19T01:06:37;11.90;;;10.90;;
13753;SDS011;6948;51.216;6.778;2022-08-19T01:09:04;11.90;;;10.70;;
13753;SDS011;6948;51.216;6.778;2022-08-19T01:11:33;12.37;;;11.17;;
13753;SDS011;6948;51.216;6.778;2022-08-19T01:14:00;12.77;;;11.57;;
13753;SDS011;6948;51.216;6.778;2022-08-19T01:16:27;14.80;;;13.23;;
13753;SDS011;6948;51.216;6.778;2022-08-19T01:18:54;12.37;;;11.23;;
13753;SDS011;6948;51.216;6.778;2022-08-19T01:23:58;12.77;;;11.70;;
13753;SDS011;6948;51.216;6.778;2022-08-19T01:26:24;13.13;;;11.77;;
13753;SDS011;6948;51.216;6.778;2022-08-19T01:28:52;12.80;;;11.47;;
13753;SDS011;6948;51.216;6.778;2022-08-19T01:31:19;14.57;;;12.77;;
13753;SDS011;6948;51.216;6.778;2022-08-19T01:33:47;14.20;;;12.70;;
13753;SDS011;6948;51.216;6.778;2022-08-19T01:36:15;16.20;;;14.07;;
13753;SDS011;6948;51.216;6.778;2022-08-19T01:38:42;14.87;;;13.47;;
13753;SDS011;6948;51.216;6.778;2022-08-19T01:41:10;14.00;;;12.57;;
13753;SDS011;6948;51.216;6.778;2022-08-19T01:43:37;13.80;;;12.60;;
13753;SDS011;6948;51.216;6.778;2022-08-19T01:46:03;12.97;;;11.63;;
13753;SDS011;6948;51.216;6.778;2022-08-19T01:48:34;12.97;;;11.70;;
13753;SDS011;6948;51.216;6.778;2022-08-19T01:51:00;12.47;;;11.37;;
13753;SDS011;6948;51.216;6.778;2022-08-19T01:53:27;14.73;;;13.13;;
13753;SDS011;6948;51.216;6.778;2022-08-19T01:55:53;13.63;;;12.23;;
13753;SDS011;6948;51.216;6.778;2022-08-19T01:58:21;12.27;;;11.00;;
13753;SDS011;6948;51.216;6.778;2022-08-19T02:00:48;12.60;;;10.93;;
13753;SDS011;6948;51.216;6.778;2022-08-19T02:03:14;11.03;;;10.00;;
13753;SDS011;6948;51.216;6.778;2022-08-19T02:05:41;12.63;;;9.97;;
13753;SDS011;6948;51.216;6.778;2022-08-19T02:08:07;10.20;;;9.20;;
13753;SDS011;6948;51.216;6.778;2022-08-19T02:10:33;13.67;;;12.20;;
13753;SDS011;6948;51.216;6.778;2022-08-19T02:13:03;13.50;;;12.10;;
13753;SDS011;6948;51.216;6.778;2022-08-19T02:15:29;12.90;;;11.30;;
13753;SDS011;6948;51.216;6.778;2022-08-19T02:17:55;12.70;;;11.40;;
13753;SDS011;6948;51.216;6.778;2022-08-19T02:20:21;11.97;;;10.80;;
13753;SDS011;6948;51.216;6.778;2022-08-19T02:22:47;12.73;;;11.20;;
13753;SDS011;6948;51.216;6.778;2022-08-19T02:25:13;15.43;;;12.70;;
13753;SDS011;6948;51.216;6.778;2022-08-19T02:27:40;15.57;;;13.67;;
13753;SDS011;6948;51.216;6.778;2022-08-19T02:30:07;15.87;;;13.47;;
13753;SDS011;6948;51.216;6.778;2022-08-19T02:32:34;17.93;;;13.80;;
13753;SDS011;6948;51.216;6.778;2022-08-19T02:35:00;16.57;;;13.33;;
13753;SDS011;6948;51.216;6.778;2022-08-19T02:37:26;14.93;;;13.53;;
13753;SDS011;6948;51.216;6.778;2022-08-19T02:40:12;17.10;;;15.17;;
13753;SDS011;6948;51.216;6.778;2022-08-19T02:42:39;18.90;;;15.13;;
13753;SDS011;6948;51.216;6.778;2022-08-19T02:45:06;17.97;;;16.17;;
13753;SDS011;6948;51.216;6.778;2022-08-19T02:47:32;19.80;;;17.50;;
13753;SDS011;6948;51.216;6.778;2022-08-19T02:50:00;18.00;;;16.40;;
13753;SDS011;6948;51.216;6.778;2022-08-19T02:52:26;21.00;;;18.83;;
13753;SDS011;6948;51.216;6.778;2022-08-19T02:54:53;21.80;;;19.63;;
13753;SDS011;6948;51.216;6.778;2022-08-19T02:57:20;23.40;;;21.10;;
13753;SDS011;6948;51.216;6.778;2022-08-19T02:59:47;22.53;;;20.53;;
13753;SDS011;6948;51.216;6.778;2022-08-19T03:02:13;23.67;;;21.50;;
13753;SDS011;6948;51.216;6.778;2022-08-19T03:04:39;24.10;;;21.83;;
13753;SDS011;6948;51.216;6.778;2022-08-19T03:07:06;23.50;;;21.20;;
13753;SDS011;6948;51.216;6.778;2022-08-19T03:09:32;22.43;;;20.43;;
13753;SDS011;6948;51.216;6.778;2022-08-19T03:11:58;23.87;;;21.60;;
13753;SDS011;6948;51.216;6.778;2022-08-19T03:14:24;27.00;;;24.60;;
13753;SDS011;6948;51.216;6.778;2022-08-19T03:16:51;28.43;;;25.70;;
13753;SDS011;6948;51.216;6.778;2022-08-19T03:19:18;28.10;;;25.23;;
13753;SDS011;6948;51.216;6.778;2022-08-19T03:21:46;27.70;;;25.10;;
13753;SDS011;6948;51.216;6.778;2022-08-19T03:24:13;27.73;;;25.03;;
13753;SDS011;6948;51.216;6.778;2022-08-19T03:26:40;29.50;;;26.87;;
13753;SDS011;6948;51.216;6.778;2022-08-19T03:29:07;28.77;;;25.87;;
13753;SDS011;6948;51.216;6.778;2022-08-19T03:31:36;26.00;;;23.70;;
13753;SDS011;6948;51.216;6.778;2022-08-19T03:34:02;27.97;;;25.23;;
13753;SDS011;6948;51.216;6.778;2022-08-19T03:36:28;29.33;;;26.50;;
13753;SDS011;6948;51.216;6.778;2022-08-19T03:38:56;28.17;;;25.57;;
13753;SDS011;6948;51.216;6.778;2022-08-19T03:41:25;29.33;;;26.57;;
13753;SDS011;6948;51.216;6.778;2022-08-19T03:43:52;28.63;;;26.07;;
13753;SDS011;6948;51.216;6.778;2022-08-19T03:46:19;30.87;;;27.93;;
13753;SDS011;6948;51.216;6.778;2022-08-19T03:48:46;28.83;;;26.27;;
13753;SDS011;6948;51.216;6.778;2022-08-19T03:51:21;30.77;;;27.83;;
13753;SDS011;6948;51.216;6.778;2022-08-19T03:53:48;30.50;;;27.60;;
13753;SDS011;6948;51.216;6.778;2022-08-19T03:56:14;33.00;;;29.77;;
13753;SDS011;6948;51.216;6.778;2022-08-19T03:58:40;30.20;;;27.23;;
13753;SDS011;6948;51.216;6.778;2022-08-19T04:01:08;33.83;;;30.37;;
13753;SDS011;6948;51.216;6.778;2022-08-19T04:03:34;32.50;;;29.53;;
13753;SDS011;6948;51.216;6.778;2022-08-19T04:06:11;34.33;;;31.10;;
13753;SDS011;6948;51.216;6.778;2022-08-19T04:08:38;34.07;;;31.03;;
13753;SDS011;6948;51.216;6.778;2022-08-19T04:11:06;34.47;;;31.23;;
13753;SDS011;6948;51.216;6.778;2022-08-19T04:13:32;36.07;;;32.87;;
13753;SDS011;6948;51.216;6.778;2022-08-19T04:15:59;37.03;;;33.50;;
13753;SDS011;6948;51.216;6.778;2022-08-19T04:18:25;36.10;;;32.67;;
13753;SDS011;6948;51.216;6.778;2022-08-19T04:20:51;34.23;;;31.13;;
13753;SDS011;6948;51.216;6.778;2022-08-19T04:23:17;34.03;;;31.03;;
13753;SDS011;6948;51.216;6.778;2022-08-19T04:25:43;33.57;;;30.47;;
13753;SDS011;6948;51.216;6.778;2022-08-19T04:28:10;34.43;;;31.10;;
13753;SDS011;6948;51.216;6.778;2022-08-19T04:30:41;35.70;;;32.30;;
13753;SDS011;6948;51.216;6.778;2022-08-19T04:33:07;35.73;;;32.17;;
13753;SDS011;6948;51.216;6.778;2022-08-19T04:35:35;37.27;;;33.57;;
13753;SDS011;6948;51.216;6.778;2022-08-19T04:38:02;39.60;;;35.70;;
13753;SDS011;6948;51.216;6.778;2022-08-19T04:40:28;38.23;;;34.73;;
13753;SDS011;6948;51.216;6.778;2022-08-19T04:43:14;39.03;;;35.43;;
13753;SDS011;6948;51.216;6.778;2022-08-19T04:45:41;43.93;;;39.80;;
13753;SDS011;6948;51.216;6.778;2022-08-19T04:48:08;41.87;;;37.93;;
13753;SDS011;6948;51.216;6.778;2022-08-19T04:50:34;39.93;;;36.23;;
13753;SDS011;6948;51.216;6.778;2022-08-19T04:53:00;43.03;;;39.00;;
13753;SDS011;6948;51.216;6.778;2022-08-19T04:55:27;41.17;;;37.43;;
13753;SDS011;6948;51.216;6.778;2022-08-19T04:57:54;44.23;;;40.03;;
13753;SDS011;6948;51.216;6.778;2022-08-19T05:00:20;44.40;;;40.17;;
13753;SDS011;6948;51.216;6.778;2022-08-19T05:02:46;45.57;;;41.20;;
13753;SDS011;6948;51.216;6.778;2022-08-19T05:05:14;43.80;;;39.60;;
13753;SDS011;6948;51.216;6.778;2022-08-19T05:07:40;42.30;;;38.20;;
13753;SDS011;6948;51.216;6.778;2022-08-19T05:10:06;43.97;;;39.70;;
13753;SDS011;6948;51.216;6.778;2022-08-19T05:12:33;44.57;;;39.83;;
13753;SDS011;6948;51.216;6.778;2022-08-19T05:14:59;40.13;;;36.10;;
13753;SDS011;6948;51.216;6.778;2022-08-19T05:17:26;39.77;;;35.77;;
13753;SDS011;6948;51.216;6.778;2022-08-19T05:19:53;38.70;;;34.87;;
13753;SDS011;6948;51.216;6.778;2022-08-19T05:22:39;37.77;;;33.73;;
13753;SDS011;6948;51.216;6.778;2022-08-19T05:25:06;42.03;;;37.50;;
13753;SDS011;6948;51.216;6.778;2022-08-19T05:27:33;45.17;;;37.10;;
13753;SDS011;6948;51.216;6.778;2022-08-19T05:29:59;38.47;;;34.87;;
13753;SDS011;6948;51.216;6.778;2022-08-19T05:32:26;41.60;;;37.43;;
13753;SDS011;6948;51.216;6.778;2022-08-19T05:34:52;41.27;;;37.30;;
13753;SDS011;6948;51.216;6.778;2022-08-19T05:37:19;42.53;;;38.23;;
13753;SDS011;6948;51.216;6.778;2022-08-19T05:39:45;43.73;;;39.33;;
13753;SDS011;6948;51.216;6.778;2022-08-19T05:42:12;43.07;;;38.70;;
13753;SDS011;6948;51.216;6.778;2022-08-19T05:44:39;41.03;;;37.13;;
13753;SDS011;6948;51.216;6.778;2022-08-19T05:47:08;46.63;;;42.30;;
13753;SDS011;6948;51.216;6.778;2022-08-19T05:49:34;42.13;;;37.97;;
13753;SDS011;6948;51.216;6.778;2022-08-19T05:52:02;47.43;;;42.53;;
13753;SDS011;6948;51.216;6.778;2022-08-19T05:54:29;42.43;;;38.53;;
13753;SDS011;6948;51.216;6.778;2022-08-19T05:56:56;45.17;;;40.73;;
13753;SDS011;6948;51.216;6.778;2022-08-19T05:59:22;45.07;;;40.47;;
13753;SDS011;6948;51.216;6.778;2022-08-19T06:01:49;44.43;;;40.33;;
13753;SDS011;6948;51.216;6.778;2022-08-19T06:04:16;42.77;;;38.67;;
13753;SDS011;6948;51.216;6.778;2022-08-19T06:06:43;45.17;;;40.70;;
13753;SDS011;6948;51.216;6.778;2022-08-19T06:09:09;44.30;;;40.00;;
13753;SDS011;6948;51.216;6.778;2022-08-19T06:14:14;40.93;;;36.97;;
13753;SDS011;6948;51.216;6.778;2022-08-19T06:16:40;42.53;;;38.30;;
13753;SDS011;6948;51.216;6.778;2022-08-19T06:19:08;38.87;;;35.00;;
13753;SDS011;6948;51.216;6.778;2022-08-19T06:21:35;40.10;;;36.27;;
13753;SDS011;6948;51.216;6.778;2022-08-19T06:24:02;45.40;;;40.90;;
13753;SDS011;6948;51.216;6.778;2022-08-19T06:26:29;43.17;;;38.93;;
13753;SDS011;6948;51.216;6.778;2022-08-19T06:28:56;41.60;;;37.40;;
13753;SDS011;6948;51.216;6.778;2022-08-19T06:31:24;41.73;;;37.50;;
13753;SDS011;6948;51.216;6.778;2022-08-19T06:33:50;45.70;;;41.10;;
13753;SDS011;6948;51.216;6.778;2022-08-19T06:36:20;44.53;;;40.03;;
13753;SDS011;6948;51.216;6.778;2022-08-19T06:38:46;46.33;;;41.93;;
13753;SDS011;6948;51.216;6.778;2022-08-19T06:41:13;41.20;;;36.90;;
13753;SDS011;6948;51.216;6.778;2022-08-19T06:43:39;41.33;;;37.13;;
13753;SDS011;6948;51.216;6.778;2022-08-19T06:46:09;40.50;;;36.60;;
13753;SDS011;6948;51.216;6.778;2022-08-19T06:48:36;44.50;;;40.10;;
13753;SDS011;6948;51.216;6.778;2022-08-19T06:51:02;43.23;;;38.80;;
13753;SDS011;6948;51.216;6.778;2022-08-19T06:53:30;39.67;;;35.67;;
13753;SDS011;6948;51.216;6.778;2022-08-19T06:55:56;41.97;;;37.77;;
13753;SDS011;6948;51.216;6.778;2022-08-19T06:58:26;42.30;;;38.20;;
13753;SDS011;6948;51.216;6.778;2022-08-19T07:00:53;41.17;;;37.20;;
13753;SDS011;6948;51.216;6.778;2022-08-19T07:03:19;42.93;;;38.83;;
13753;SDS011;6948;51.216;6.778;2022-08-19T07:05:46;43.60;;;39.10;;
13753;SDS011;6948;51.216;6.778;2022-08-19T07:08:12;43.73;;;39.37;;
13753;SDS011;6948;51.216;6.778;2022-08-19T07:10:42;42.87;;;38.67;;
13753;SDS011;6948;51.216;6.778;2022-08-19T07:13:08;43.03;;;38.70;;
13753;SDS011;6948;51.216;6.778;2022-08-19T07:15:35;41.63;;;37.37;;
13753;SDS011;6948;51.216;6.778;2022-08-19T07:18:02;39.07;;;35.03;;
13753;SDS011;6948;51.216;6.778;2022-08-19T07:20:28;41.50;;;37.00;;
13753;SDS011;6948;51.216;6.778;2022-08-19T07:22:54;36.90;;;32.27;;
13753;SDS011;6948;51.216;6.778;2022-08-19T07:25:20;34.20;;;30.70;;
13753;SDS011;6948;51.216;6.778;2022-08-19T07:27:48;35.20;;;31.40;;
13753;SDS011;6948;51.216;6.778;2022-08-19T07:30:15;34.03;;;30.37;;
13753;SDS011;6948;51.216;6.778;2022-08-19T07:32:42;36.20;;;32.13;;
13753;SDS011;6948;51.216;6.778;2022-08-19T07:35:08;35.63;;;32.03;;
13753;SDS011;6948;51.216;6.778;2022-08-19T07:37:35;31.93;;;28.13;;
13753;SDS011;6948;51.216;6.778;2022-08-19T07:40:03;31.13;;;27.87;;
13753;SDS011;6948;51.216;6.778;2022-08-19T07:42:29;32.70;;;29.43;;
13753;SDS011;6948;51.216;6.778;2022-08-19T07:44:55;32.37;;;29.37;;
13753;SDS011;6948;51.216;6.778;2022-08-19T07:47:21;28.23;;;25.53;;
13753;SDS011;6948;51.216;6.778;2022-08-19T07:49:47;27.70;;;24.97;;
13753;SDS011;6948;51.216;6.778;2022-08-19T07:52:13;25.27;;;22.83;;
13753;SDS011;6948;51.216;6.778;2022-08-19T07:54:41;28.80;;;25.83;;
13753;SDS011;6948;51.216;6.778;2022-08-19T07:57:07;27.33;;;24.67;;
13753;SDS011;6948;51.216;6.778;2022-08-19T07:59:34;23.73;;;21.33;;
13753;SDS011;6948;51.216;6.778;2022-08-19T08:02:01;23.63;;;21.30;;
13753;SDS011;6948;51.216;6.778;2022-08-19T08:04:28;23.17;;;20.87;;
13753;SDS011;6948;51.216;6.778;2022-08-19T08:07:14;24.20;;;21.83;;
13753;SDS011;6948;51.216;6.778;2022-08-19T08:10:00;29.13;;;26.23;;
13753;SDS011;6948;51.216;6.778;2022-08-19T08:12:28;25.33;;;22.67;;
13753;SDS011;6948;51.216;6.778;2022-08-19T08:14:56;26.73;;;23.93;;
13753;SDS011;6948;51.216;6.778;2022-08-19T08:17:24;28.67;;;25.20;;
13753;SDS011;6948;51.216;6.778;2022-08-19T08:19:50;31.93;;;28.63;;
13753;SDS011;6948;51.216;6.778;2022-08-19T08:22:17;34.70;;;30.60;;
13753;SDS011;6948;51.216;6.778;2022-08-19T08:25:05;32.83;;;29.33;;
13753;SDS011;6948;51.216;6.778;2022-08-19T08:27:35;38.23;;;33.77;;
13753;SDS011;6948;51.216;6.778;2022-08-19T08:30:02;41.87;;;37.47;;
13753;SDS011;6948;51.216;6.778;2022-08-19T08:32:29;41.17;;;36.97;;
13753;SDS011;6948;51.216;6.778;2022-08-19T08:34:55;42.77;;;37.00;;
13753;SDS011;6948;51.216;6.778;2022-08-19T08:37:21;43.77;;;39.13;;
13753;SDS011;6948;51.216;6.778;2022-08-19T08:39:47;42.80;;;37.20;;
13753;SDS011;6948;51.216;6.778;2022-08-19T08:42:19;41.90;;;37.47;;
13753;SDS011;6948;51.216;6.778;2022-08-19T08:47:23;43.10;;;37.53;;
13753;SDS011;6948;51.216;6.778;2022-08-19T08:49:54;40.90;;;36.40;;
13753;SDS011;6948;51.216;6.778;2022-08-19T08:52:25;38.57;;;34.47;;
13753;SDS011;6948;51.216;6.778;2022-08-19T08:54:53;40.30;;;35.90;;
13753;SDS011;6948;51.216;6.778;2022-08-19T08:57:24;37.67;;;33.23;;
13753;SDS011;6948;51.216;6.778;2022-08-19T08:59:52;35.33;;;31.53;;
13753;SDS011;6948;51.216;6.778;2022-08-19T09:02:20;36.63;;;32.00;;
13753;SDS011;6948;51.216;6.778;2022-08-19T09:04:46;35.00;;;31.53;;
13753;SDS011;6948;51.216;6.778;2022-08-19T09:09:49;40.17;;;34.50;;
13753;SDS011;6948;51.216;6.778;2022-08-19T09:12:19;33.97;;;30.53;;
13753;SDS011;6948;51.216;6.778;2022-08-19T09:14:48;29.95;;;26.73;;
13753;SDS011;6948;51.216;6.778;2022-08-19T09:17:16;29.17;;;26.00;;
13753;SDS011;6948;51.216;6.778;2022-08-19T09:19:51;30.27;;;25.00;;
13753;SDS011;6948;51.216;6.778;2022-08-19T09:22:17;30.93;;;27.67;;
13753;SDS011;6948;51.216;6.778;2022-08-19T09:24:46;29.63;;;26.53;;
13753;SDS011;6948;51.216;6.778;2022-08-19T09:27:12;29.77;;;26.77;;
13753;SDS011;6948;51.216;6.778;2022-08-19T09:29:38;26.80;;;23.98;;
13753;SDS011;6948;51.216;6.778;2022-08-19T09:32:04;24.15;;;21.63;;
13753;SDS011;6948;51.216;6.778;2022-08-19T09:34:31;23.35;;;20.13;;
13753;SDS011;6948;51.216;6.778;2022-08-19T09:36:58;26.40;;;22.52;;
13753;SDS011;6948;51.216;6.778;2022-08-19T09:39:25;26.07;;;23.33;;
13753;SDS011;6948;51.216;6.778;2022-08-19T09:41:51;26.98;;;23.23;;
13753;SDS011;6948;51.216;6.778;2022-08-19T09:44:18;25.43;;;22.37;;
13753;SDS011;6948;51.216;6.778;2022-08-19T09:46:45;25.13;;;22.42;;
13753;SDS011;6948;51.216;6.778;2022-08-19T09:49:12;22.43;;;20.10;;
13753;SDS011;6948;51.216;6.778;2022-08-19T09:51:38;25.00;;;20.70;;
13753;SDS011;6948;51.216;6.778;2022-08-19T09:54:04;23.60;;;21.30;;
13753;SDS011;6948;51.216;6.778;2022-08-19T09:56:30;25.07;;;22.47;;
13753;SDS011;6948;51.216;6.778;2022-08-19T09:58:58;23.73;;;21.37;;
13753;SDS011;6948;51.216;6.778;2022-08-19T10:01:25;25.07;;;22.50;;
13753;SDS011;6948;51.216;6.778;2022-08-19T10:03:52;23.25;;;20.70;;
13753;SDS011;6948;51.216;6.778;2022-08-19T10:06:19;21.35;;;19.15;;
13753;SDS011;6948;51.216;6.778;2022-08-19T10:08:46;20.30;;;18.15;;
13753;SDS011;6948;51.216;6.778;2022-08-19T10:11:12;21.67;;;19.02;;
13753;SDS011;6948;51.216;6.778;2022-08-19T10:13:41;21.38;;;18.42;;
13753;SDS011;6948;51.216;6.778;2022-08-19T10:16:09;20.70;;;18.17;;
13753;SDS011;6948;51.216;6.778;2022-08-19T10:18:36;20.08;;;17.10;;
13753;SDS011;6948;51.216;6.778;2022-08-19T10:21:03;21.08;;;18.73;;
13753;SDS011;6948;51.216;6.778;2022-08-19T10:23:32;21.25;;;16.50;;
13753;SDS011;6948;51.216;6.778;2022-08-19T10:26:00;18.75;;;16.73;;
13753;SDS011;6948;51.216;6.778;2022-08-19T10:28:26;17.65;;;15.95;;
13753;SDS011;6948;51.216;6.778;2022-08-19T10:30:52;19.50;;;17.48;;
13753;SDS011;6948;51.216;6.778;2022-08-19T10:33:18;19.02;;;15.25;;
13753;SDS011;6948;51.216;6.778;2022-08-19T10:35:44;18.38;;;15.93;;
13753;SDS011;6948;51.216;6.778;2022-08-19T10:38:11;19.50;;;17.55;;
13753;SDS011;6948;51.216;6.778;2022-08-19T10:40:37;19.90;;;18.05;;
13753;SDS011;6948;51.216;6.778;2022-08-19T10:43:04;16.98;;;15.23;;
13753;SDS011;6948;51.216;6.778;2022-08-19T10:45:30;18.13;;;15.60;;
13753;SDS011;6948;51.216;6.778;2022-08-19T10:47:56;15.93;;;14.25;;
13753;SDS011;6948;51.216;6.778;2022-08-19T10:50:22;13.88;;;12.45;;
13753;SDS011;6948;51.216;6.778;2022-08-19T10:53:08;13.15;;;11.75;;
13753;SDS011;6948;51.216;6.778;2022-08-19T10:55:34;13.70;;;12.30;;
13753;SDS011;6948;51.216;6.778;2022-08-19T10:58:21;14.75;;;12.27;;
13753;SDS011;6948;51.216;6.778;2022-08-19T11:00:53;13.43;;;11.90;;
13753;SDS011;6948;51.216;6.778;2022-08-19T11:03:19;12.55;;;11.35;;
13753;SDS011;6948;51.216;6.778;2022-08-19T11:05:45;13.10;;;11.75;;
13753;SDS011;6948;51.216;6.778;2022-08-19T11:08:13;15.88;;;12.07;;
13753;SDS011;6948;51.216;6.778;2022-08-19T11:10:41;13.32;;;11.93;;
13753;SDS011;6948;51.216;6.778;2022-08-19T11:13:07;13.23;;;11.93;;
13753;SDS011;6948;51.216;6.778;2022-08-19T11:15:33;14.48;;;12.95;;
13753;SDS011;6948;51.216;6.778;2022-08-19T11:17:59;16.05;;;13.30;;
13753;SDS011;6948;51.216;6.778;2022-08-19T11:20:25;13.90;;;12.40;;
13753;SDS011;6948;51.216;6.778;2022-08-19T11:22:52;15.05;;;12.48;;
13753;SDS011;6948;51.216;6.778;2022-08-19T11:25:18;16.65;;;11.30;;
13753;SDS011;6948;51.216;6.778;2022-08-19T11:27:45;12.85;;;11.23;;
13753;SDS011;6948;51.216;6.778;2022-08-19T11:30:12;17.98;;;13.70;;
13753;SDS011;6948;51.216;6.778;2022-08-19T11:32:40;12.52;;;11.25;;
13753;SDS011;6948;51.216;6.778;2022-08-19T11:35:06;12.60;;;11.40;;
13753;SDS011;6948;51.216;6.778;2022-08-19T11:37:33;13.10;;;11.70;;
13753;SDS011;6948;51.216;6.778;2022-08-19T11:40:02;11.23;;;9.63;;
13753;SDS011;6948;51.216;6.778;2022-08-19T11:42:28;13.20;;;9.30;;
13753;SDS011;6948;51.216;6.778;2022-08-19T11:45:14;10.10;;;8.70;;
13753;SDS011;6948;51.216;6.778;2022-08-19T11:47:40;9.13;;;8.23;;
13753;SDS011;6948;51.216;6.778;2022-08-19T11:50:06;8.35;;;7.38;;
13753;SDS011;6948;51.216;6.778;2022-08-19T11:52:32;9.18;;;8.30;;
13753;SDS011;6948;51.216;6.778;2022-08-19T11:54:58;10.90;;;7.97;;
13753;SDS011;6948;51.216;6.778;2022-08-19T11:57:25;9.05;;;8.15;;
13753;SDS011;6948;51.216;6.778;2022-08-19T11:59:51;11.55;;;10.35;;
13753;SDS011;6948;51.216;6.778;2022-08-19T12:02:17;11.43;;;9.50;;
13753;SDS011;6948;51.216;6.778;2022-08-19T12:04:44;10.38;;;9.05;;
13753;SDS011;6948;51.216;6.778;2022-08-19T12:07:10;9.85;;;8.10;;
13753;SDS011;6948;51.216;6.778;2022-08-19T12:09:36;9.55;;;7.40;;
13753;SDS011;6948;51.216;6.778;2022-08-19T12:12:04;11.05;;;8.43;;
13753;SDS011;6948;51.216;6.778;2022-08-19T12:14:30;8.90;;;8.00;;
13753;SDS011;6948;51.216;6.778;2022-08-19T12:16:57;13.98;;;8.02;;
13753;SDS011;6948;51.216;6.778;2022-08-19T12:19:23;9.60;;;8.10;;
13753;SDS011;6948;51.216;6.778;2022-08-19T12:21:49;8.80;;;7.15;;
13753;SDS011;6948;51.216;6.778;2022-08-19T12:24:16;9.68;;;8.63;;
13753;SDS011;6948;51.216;6.778;2022-08-19T12:26:47;12.27;;;7.57;;
13753;SDS011;6948;51.216;6.778;2022-08-19T12:29:14;11.93;;;7.88;;
13753;SDS011;6948;51.216;6.778;2022-08-19T12:31:40;8.10;;;6.75;;
13753;SDS011;6948;51.216;6.778;2022-08-19T12:34:06;9.55;;;8.23;;
13753;SDS011;6948;51.216;6.778;2022-08-19T12:36:32;11.25;;;8.50;;
13753;SDS011;6948;51.216;6.778;2022-08-19T12:38:58;9.68;;;8.77;;
13753;SDS011;6948;51.216;6.778;2022-08-19T12:41:25;13.32;;;9.13;;
13753;SDS011;6948;51.216;6.778;2022-08-19T12:43:51;11.20;;;7.97;;
13753;SDS011;6948;51.216;6.778;2022-08-19T12:46:19;8.25;;;7.45;;
13753;SDS011;6948;51.216;6.778;2022-08-19T12:48:45;10.30;;;7.40;;
13753;SDS011;6948;51.216;6.778;2022-08-19T12:51:13;9.90;;;7.60;;
13753;SDS011;6948;51.216;6.778;2022-08-19T12:53:40;7.45;;;6.68;;
13753;SDS011;6948;51.216;6.778;2022-08-19T12:56:06;7.38;;;6.60;;
13753;SDS011;6948;51.216;6.778;2022-08-19T12:58:32;7.65;;;6.78;;
13753;SDS011;6948;51.216;6.778;2022-08-19T13:01:05;8.20;;;6.78;;
13753;SDS011;6948;51.216;6.778;2022-08-19T13:03:31;10.93;;;6.68;;
13753;SDS011;6948;51.216;6.778;2022-08-19T13:05:57;10.85;;;6.57;;
13753;SDS011;6948;51.216;6.778;2022-08-19T13:08:24;7.40;;;6.60;;
13753;SDS011;6948;51.216;6.778;2022-08-19T13:10:50;8.43;;;6.70;;
13753;SDS011;6948;51.216;6.778;2022-08-19T13:13:16;7.47;;;6.78;;
13753;SDS011;6948;51.216;6.778;2022-08-19T13:15:42;7.13;;;6.43;;
13753;SDS011;6948;51.216;6.778;2022-08-19T13:18:10;6.95;;;6.28;;
13753;SDS011;6948;51.216;6.778;2022-08-19T13:20:37;6.63;;;5.95;;
13753;SDS011;6948;51.216;6.778;2022-08-19T13:23:05;7.50;;;6.18;;
13753;SDS011;6948;51.216;6.778;2022-08-19T13:25:31;6.93;;;5.93;;
13753;SDS011;6948;51.216;6.778;2022-08-19T13:27:57;8.43;;;5.55;;
13753;SDS011;6948;51.216;6.778;2022-08-19T13:30:23;6.13;;;5.25;;
13753;SDS011;6948;51.216;6.778;2022-08-19T13:33:09;6.78;;;5.13;;
13753;SDS011;6948;51.216;6.778;2022-08-19T13:35:36;7.35;;;5.35;;
13753;SDS011;6948;51.216;6.778;2022-08-19T13:38:02;9.00;;;5.80;;
13753;SDS011;6948;51.216;6.778;2022-08-19T13:40:29;8.73;;;5.40;;
13753;SDS011;6948;51.216;6.778;2022-08-19T13:42:58;10.20;;;5.30;;
13753;SDS011;6948;51.216;6.778;2022-08-19T13:45:25;7.75;;;5.43;;
13753;SDS011;6948;51.216;6.778;2022-08-19T13:47:52;7.28;;;5.53;;
13753;SDS011;6948;51.216;6.778;2022-08-19T13:50:20;7.22;;;4.70;;
13753;SDS011;6948;51.216;6.778;2022-08-19T13:52:46;6.25;;;5.20;;
13753;SDS011;6948;51.216;6.778;2022-08-19T13:55:13;6.75;;;5.38;;
13753;SDS011;6948;51.216;6.778;2022-08-19T13:57:39;5.60;;;4.85;;
13753;SDS011;6948;51.216;6.778;2022-08-19T14:00:08;7.80;;;4.78;;
13753;SDS011;6948;51.216;6.778;2022-08-19T14:02:35;7.22;;;4.80;;
13753;SDS011;6948;51.216;6.778;2022-08-19T14:05:03;6.30;;;4.40;;
13753;SDS011;6948;51.216;6.778;2022-08-19T14:07:29;5.85;;;4.22;;
13753;SDS011;6948;51.216;6.778;2022-08-19T14:09:55;4.43;;;3.97;;
13753;SDS011;6948;51.216;6.778;2022-08-19T14:12:21;7.80;;;4.00;;
13753;SDS011;6948;51.216;6.778;2022-08-19T14:14:47;7.72;;;4.28;;
13753;SDS011;6948;51.216;6.778;2022-08-19T14:17:14;7.00;;;4.00;;
13753;SDS011;6948;51.216;6.778;2022-08-19T14:19:40;6.28;;;3.83;;
13753;SDS011;6948;51.216;6.778;2022-08-19T14:22:07;5.50;;;3.78;;
13753;SDS011;6948;51.216;6.778;2022-08-19T14:24:33;6.20;;;3.97;;
13753;SDS011;6948;51.216;6.778;2022-08-19T14:26:59;5.10;;;3.85;;
13753;SDS011;6948;51.216;6.778;2022-08-19T14:29:25;6.53;;;3.78;;
13753;SDS011;6948;51.216;6.778;2022-08-19T14:31:53;7.88;;;3.65;;
13753;SDS011;6948;51.216;6.778;2022-08-19T14:34:21;10.02;;;3.88;;
13753;SDS011;6948;51.216;6.778;2022-08-19T14:36:47;7.05;;;3.72;;
13753;SDS011;6948;51.216;6.778;2022-08-19T14:39:13;8.15;;;3.60;;
13753;SDS011;6948;51.216;6.778;2022-08-19T14:41:39;7.38;;;3.50;;
13753;SDS011;6948;51.216;6.778;2022-08-19T14:44:06;5.03;;;3.50;;
13753;SDS011;6948;51.216;6.778;2022-08-19T14:46:32;6.53;;;3.88;;
13753;SDS011;6948;51.216;6.778;2022-08-19T14:48:57;7.07;;;3.67;;
13753;SDS011;6948;51.216;6.778;2022-08-19T14:51:24;6.43;;;3.60;;